createdAt,value
2022-11-27T00:00:57.825Z,14.50
2022-11-27T00:03:24.980Z,17.67
2022-11-27T00:05:57.485Z,15.15
2022-11-27T00:08:27.623Z,11.23
2022-11-27T00:10:54.561Z,18.10
2022-11-27T00:13:21.861Z,15.98
2022-11-27T00:15:49.209Z,10.95
2022-11-27T00:18:16.275Z,14.93
2022-11-27T00:20:43.580Z,17.40
2022-11-27T00:23:10.769Z,15.98
2022-11-27T00:25:37.666Z,16.15
2022-11-27T00:28:04.676Z,15.70
2022-11-27T00:30:31.589Z,20.10
2022-11-27T00:32:58.867Z,17.77
2022-11-27T00:35:26.175Z,15.63
2022-11-27T00:37:53.450Z,16.90
2022-11-27T00:40:20.729Z,16.73
2022-11-27T00:42:47.591Z,12.05
2022-11-27T00:45:14.884Z,14.60
2022-11-27T00:47:41.832Z,17.48
2022-11-27T00:50:09.111Z,14.80
2022-11-27T00:52:36.053Z,15.55
2022-11-27T00:55:03.285Z,18.63
2022-11-27T00:57:30.595Z,14.93
2022-11-27T00:59:57.582Z,13.10
2022-11-27T01:02:24.518Z,12.70
2022-11-27T01:04:51.482Z,14.57
2022-11-27T01:07:18.849Z,12.23
2022-11-27T01:09:46.170Z,16.73
2022-11-27T01:12:13.671Z,16.50
2022-11-27T01:14:41.193Z,14.45
2022-11-27T01:17:08.209Z,18.42
2022-11-27T01:19:35.076Z,15.68
2022-11-27T01:22:01.955Z,27.13
2022-11-27T01:24:33.982Z,17.02
2022-11-27T01:27:01.418Z,20.35
2022-11-27T01:29:28.683Z,16.10
2022-11-27T01:31:56.048Z,15.68
2022-11-27T01:34:23.375Z,15.52
2022-11-27T01:36:50.757Z,13.60
2022-11-27T01:39:20.667Z,13.85
2022-11-27T01:41:48.480Z,22.08
2022-11-27T01:44:25.165Z,16.27
2022-11-27T01:46:52.580Z,16.65
2022-11-27T01:49:30.467Z,15.10
2022-11-27T01:52:12.178Z,12.35
2022-11-27T01:54:57.852Z,12.35
2022-11-27T01:57:29.546Z,14.65
2022-11-27T01:59:59.256Z,17.15
2022-11-27T02:02:26.907Z,11.65
2022-11-27T02:04:55.154Z,16.08
2022-11-27T02:07:22.758Z,15.43
2022-11-27T02:09:50.132Z,17.08
2022-11-27T02:12:25.290Z,14.90
2022-11-27T02:14:55.897Z,17.08
2022-11-27T02:20:20.417Z,13.75
2022-11-27T02:25:28.412Z,15.60
2022-11-27T02:28:05.265Z,15.45
2022-11-27T02:30:38.915Z,13.98
2022-11-27T02:33:11.781Z,15.60
2022-11-27T02:35:47.587Z,14.55
2022-11-27T02:38:29.946Z,10.02
2022-11-27T02:41:09.510Z,18.77
2022-11-27T02:43:45.032Z,18.23
2022-11-27T02:46:14.267Z,14.60
2022-11-27T02:48:49.763Z,9.43
2022-11-27T02:51:31.212Z,18.88
2022-11-27T02:54:01.639Z,14.93
2022-11-27T02:56:31.216Z,16.02
2022-11-27T02:59:02.711Z,15.00
2022-11-27T03:01:33.673Z,12.50
2022-11-27T03:04:04.302Z,12.60
2022-11-27T03:06:39.006Z,15.63
2022-11-27T03:09:16.146Z,17.08
2022-11-27T03:11:46.243Z,16.10
2022-11-27T03:14:13.977Z,14.27
2022-11-27T03:17:02.686Z,17.08
2022-11-27T03:19:50.837Z,17.38
2022-11-27T03:22:22.391Z,18.50
2022-11-27T03:24:50.063Z,14.95
2022-11-27T03:27:26.015Z,13.85
2022-11-27T03:29:57.085Z,15.77
2022-11-27T03:32:24.963Z,14.40
2022-11-27T03:34:55.906Z,14.50
2022-11-27T03:37:23.881Z,12.65
2022-11-27T03:39:51.584Z,14.90
2022-11-27T03:42:39.809Z,14.15
2022-11-27T03:45:07.281Z,12.18
2022-11-27T03:47:46.484Z,19.63
2022-11-27T03:50:14.360Z,15.80
2022-11-27T03:52:41.634Z,16.25
2022-11-27T03:55:28.128Z,16.67
2022-11-27T03:57:58.388Z,13.55
2022-11-27T04:00:25.894Z,14.50
2022-11-27T04:02:54.045Z,14.50
2022-11-27T04:05:21.703Z,13.23
2022-11-27T04:07:49.315Z,22.13
2022-11-27T04:10:16.754Z,17.80
2022-11-27T04:12:44.083Z,15.82
2022-11-27T04:15:11.532Z,15.38
2022-11-27T04:17:38.868Z,19.60
2022-11-27T04:20:06.557Z,11.00
2022-11-27T04:22:33.932Z,21.42
2022-11-27T04:25:01.303Z,13.52
2022-11-27T04:27:28.621Z,17.88
2022-11-27T04:29:55.916Z,14.65
2022-11-27T04:32:23.292Z,15.27
2022-11-27T04:34:50.606Z,11.50
2022-11-27T04:37:17.903Z,15.20
2022-11-27T04:39:45.180Z,14.82
2022-11-27T04:42:12.509Z,15.95
2022-11-27T04:44:39.986Z,17.83
2022-11-27T04:47:07.554Z,10.02
2022-11-27T04:49:34.984Z,12.65
2022-11-27T04:52:02.336Z,15.43
2022-11-27T04:54:29.693Z,14.80
2022-11-27T04:56:57.043Z,14.13
2022-11-27T04:59:24.411Z,9.80
2022-11-27T05:01:51.749Z,12.00
2022-11-27T05:04:19.258Z,12.73
2022-11-27T05:06:46.692Z,12.63
2022-11-27T05:09:14.054Z,18.17
2022-11-27T05:11:41.321Z,13.15
2022-11-27T05:14:22.691Z,14.00
2022-11-27T05:16:54.799Z,11.52
2022-11-27T05:19:23.319Z,11.98
2022-11-27T05:21:51.081Z,13.68
2022-11-27T05:24:22.331Z,15.02
2022-11-27T05:26:49.636Z,10.80
2022-11-27T05:29:17.363Z,13.75
2022-11-27T05:31:45.085Z,11.70
2022-11-27T05:34:12.532Z,15.13
2022-11-27T05:36:40.014Z,15.23
2022-11-27T05:39:08.746Z,13.10
2022-11-27T05:41:37.092Z,11.57
2022-11-27T05:44:04.446Z,13.68
2022-11-27T05:46:31.808Z,11.27
2022-11-27T05:48:59.300Z,11.68
2022-11-27T05:51:26.949Z,9.43
2022-11-27T05:53:54.279Z,15.88
2022-11-27T05:56:21.813Z,15.95
2022-11-27T05:58:49.609Z,13.57
2022-11-27T06:01:20.286Z,18.52
2022-11-27T06:03:48.146Z,17.17
2022-11-27T06:06:19.933Z,17.17
2022-11-27T06:08:48.325Z,11.38
2022-11-27T06:11:20.672Z,15.85
2022-11-27T06:13:49.572Z,15.60
2022-11-27T06:16:22.656Z,14.90
2022-11-27T06:18:51.871Z,17.83
2022-11-27T06:21:19.517Z,17.23
2022-11-27T06:23:48.480Z,15.68
2022-11-27T06:26:24.816Z,15.07
2022-11-27T06:28:52.483Z,12.05
2022-11-27T06:31:25.810Z,15.02
2022-11-27T06:33:54.309Z,16.98
2022-11-27T06:36:23.932Z,13.15
2022-11-27T06:38:51.350Z,19.80
2022-11-27T06:41:20.932Z,19.23
2022-11-27T06:43:48.767Z,21.27
2022-11-27T06:46:18.231Z,19.65
2022-11-27T06:48:46.584Z,15.18
2022-11-27T06:51:16.060Z,16.38
2022-11-27T06:53:43.996Z,12.37
2022-11-27T06:56:13.786Z,17.10
2022-11-27T06:58:41.125Z,23.05
2022-11-27T07:01:13.920Z,15.90
2022-11-27T07:03:41.817Z,15.85
2022-11-27T07:06:11.738Z,13.30
2022-11-27T07:08:39.246Z,16.73
2022-11-27T07:11:26.594Z,14.55
2022-11-27T07:13:57.029Z,21.23
2022-11-27T07:18:53.449Z,17.13
2022-11-27T07:21:24.314Z,11.50
2022-11-27T07:23:51.885Z,14.07
2022-11-27T07:26:46.330Z,12.07
2022-11-27T07:29:19.804Z,14.98
2022-11-27T07:31:48.735Z,13.55
2022-11-27T07:34:21.218Z,14.73
2022-11-27T07:36:49.092Z,14.23
2022-11-27T07:39:25.210Z,11.05
2022-11-27T07:42:23.202Z,14.32
2022-11-27T07:44:48.918Z,17.75
2022-11-27T07:47:23.842Z,14.40
2022-11-27T07:49:55.480Z,15.90
2022-11-27T07:52:22.898Z,15.05
2022-11-27T07:54:50.340Z,23.05
2022-11-27T07:57:17.589Z,11.93
2022-11-27T07:59:47.487Z,16.50
2022-11-27T08:02:15.500Z,15.52
2022-11-27T08:04:43.625Z,20.80
2022-11-27T08:07:11.473Z,15.13
2022-11-27T08:09:40.030Z,14.40
2022-11-27T08:12:07.713Z,13.85
2022-11-27T08:14:35.100Z,22.05
2022-11-27T08:17:02.586Z,15.30
2022-11-27T08:19:33.046Z,14.05
2022-11-27T08:22:03.682Z,18.63
2022-11-27T08:27:36.125Z,15.82
2022-11-27T08:30:04.753Z,19.08
2022-11-27T08:32:32.187Z,15.88
2022-11-27T08:34:59.633Z,17.90
2022-11-27T08:37:26.972Z,14.55
2022-11-27T08:40:08.451Z,15.80
2022-11-27T08:42:43.170Z,14.68
2022-11-27T08:48:02.543Z,19.58
2022-11-27T08:50:29.932Z,16.27
2022-11-27T08:52:57.603Z,17.83
2022-11-27T08:55:25.204Z,12.02
2022-11-27T08:57:52.447Z,19.17
2022-11-27T09:00:24.927Z,13.55
2022-11-27T09:02:55.032Z,15.45
2022-11-27T09:05:22.409Z,15.45
2022-11-27T09:07:50.851Z,13.70
2022-11-27T09:10:18.322Z,15.15
2022-11-27T09:12:45.767Z,18.75
2022-11-27T09:15:13.549Z,12.70
2022-11-27T09:17:40.831Z,14.85
2022-11-27T09:20:08.152Z,11.40
2022-11-27T09:22:35.939Z,15.40
2022-11-27T09:25:03.593Z,12.90
2022-11-27T09:27:30.849Z,16.95
2022-11-27T09:29:58.744Z,19.52
2022-11-27T09:32:26.158Z,13.45
2022-11-27T09:34:53.537Z,13.13
2022-11-27T09:37:20.829Z,11.35
2022-11-27T09:39:48.131Z,14.05
2022-11-27T09:42:41.083Z,10.50
2022-11-27T09:45:14.219Z,12.13
2022-11-27T09:47:49.087Z,13.98
2022-11-27T09:50:24.356Z,11.27
2022-11-27T09:53:02.935Z,15.88
2022-11-27T09:55:48.930Z,10.38
2022-11-27T09:58:37.983Z,15.45
2022-11-27T10:01:45.242Z,10.05
2022-11-27T10:04:39.841Z,11.38
2022-11-27T10:12:26.167Z,12.50
2022-11-27T10:15:10.910Z,13.85
2022-11-27T10:17:52.291Z,13.93
2022-11-27T10:20:29.359Z,13.77
2022-11-27T10:23:06.410Z,10.02
2022-11-27T10:26:11.050Z,15.13
2022-11-27T10:28:51.272Z,14.55
2022-11-27T10:31:49.597Z,13.65
2022-11-27T10:34:38.607Z,9.10
2022-11-27T10:37:17.512Z,11.50
2022-11-27T10:40:00.545Z,12.40
2022-11-27T10:42:50.940Z,10.05
2022-11-27T10:47:47.260Z,10.02
2022-11-27T10:50:18.807Z,10.93
2022-11-27T10:52:54.127Z,9.95
2022-11-27T10:55:48.796Z,9.40
2022-11-27T10:58:37.057Z,12.55
2022-11-27T11:01:07.073Z,9.32
2022-11-27T11:03:34.884Z,12.63
2022-11-27T11:06:20.008Z,13.07
2022-11-27T11:08:48.877Z,11.73
2022-11-27T11:11:26.044Z,12.93
2022-11-27T11:13:54.412Z,12.10
2022-11-27T11:16:46.874Z,10.85
2022-11-27T11:19:42.323Z,8.38
2022-11-27T11:22:19.453Z,11.13
2022-11-27T11:24:52.054Z,12.00
2022-11-27T11:27:32.408Z,19.27
2022-11-27T11:32:32.518Z,7.35
2022-11-27T11:35:30.766Z,7.53
2022-11-27T11:37:59.070Z,11.07
2022-11-27T11:40:32.668Z,8.10
2022-11-27T11:43:22.997Z,10.10
2022-11-27T11:48:25.268Z,7.25
2022-11-27T11:50:58.381Z,8.40
2022-11-27T11:53:40.979Z,8.20
2022-11-27T11:56:07.915Z,11.35
2022-11-27T11:58:45.109Z,11.98
2022-11-27T12:01:32.992Z,6.63
2022-11-27T12:04:05.920Z,10.23
2022-11-27T12:06:55.450Z,13.30
2022-11-27T12:10:03.717Z,12.13
2022-11-27T12:12:51.627Z,8.82
2022-11-27T12:15:50.625Z,13.68
2022-11-27T12:18:40.890Z,7.40
2022-11-27T12:21:17.966Z,10.70
2022-11-27T12:24:09.498Z,7.45
2022-11-27T12:27:07.432Z,7.50
2022-11-27T12:30:10.745Z,9.80
2022-11-27T12:33:27.058Z,7.32
2022-11-27T12:36:21.543Z,7.90
2022-11-27T12:39:14.009Z,15.35
2022-11-27T12:41:55.574Z,12.05
2022-11-27T12:44:32.900Z,7.05
2022-11-27T12:47:11.061Z,6.85
2022-11-27T12:49:46.352Z,9.77
2022-11-27T12:52:23.643Z,7.63
2022-11-27T12:54:57.113Z,8.25
2022-11-27T12:57:41.772Z,8.48
2022-11-27T13:00:19.950Z,9.10
2022-11-27T13:02:46.821Z,7.03
2022-11-27T13:05:23.272Z,5.95
2022-11-27T13:07:57.003Z,7.88
2022-11-27T13:10:24.594Z,8.88
2022-11-27T13:12:54.221Z,7.35
2022-11-27T13:15:41.440Z,9.27
2022-11-27T13:18:26.770Z,9.30
2022-11-27T13:20:54.751Z,6.15
2022-11-27T13:23:21.940Z,6.93
2022-11-27T13:25:55.556Z,8.23
2022-11-27T13:28:32.233Z,10.52
2022-11-27T13:31:01.468Z,7.38
2022-11-27T13:33:44.304Z,8.57
2022-11-27T13:37:12.662Z,5.90
2022-11-27T13:40:42.484Z,11.73
2022-11-27T13:43:50.589Z,8.75
2022-11-27T13:46:39.389Z,9.50
2022-11-27T13:49:07.180Z,10.13
2022-11-27T13:51:39.493Z,8.48
2022-11-27T13:54:14.778Z,7.63
2022-11-27T13:56:42.482Z,6.32
2022-11-27T13:59:18.481Z,10.52
2022-11-27T14:02:03.348Z,6.60
2022-11-27T14:04:31.329Z,8.43
2022-11-27T14:07:07.177Z,6.82
2022-11-27T14:09:37.828Z,8.65
2022-11-27T14:12:22.524Z,12.48
2022-11-27T14:15:02.298Z,9.35
2022-11-27T14:17:39.813Z,8.90
2022-11-27T14:20:19.502Z,12.60
2022-11-27T14:23:16.738Z,9.05
2022-11-27T14:26:14.802Z,10.35
2022-11-27T14:28:55.531Z,10.80
2022-11-27T14:31:31.461Z,10.93
2022-11-27T14:34:14.824Z,7.68
2022-11-27T14:36:44.233Z,17.48
2022-11-27T14:39:26.228Z,18.80
2022-11-27T14:42:08.489Z,15.93
2022-11-27T14:44:41.246Z,12.77
2022-11-27T14:47:22.791Z,11.98
2022-11-27T14:50:12.432Z,6.60
2022-11-27T14:52:40.137Z,7.40
2022-11-27T14:55:34.628Z,7.40
2022-11-27T14:58:22.366Z,6.68
2022-11-27T15:01:12.975Z,8.98
2022-11-27T15:03:44.123Z,8.00
2022-11-27T15:07:13.681Z,5.65
2022-11-27T15:13:02.753Z,4.35
2022-11-27T15:18:22.572Z,7.72
2022-11-27T15:20:50.011Z,21.13
2022-11-27T15:23:19.398Z,24.42
2022-11-27T15:25:50.164Z,16.98
2022-11-27T15:28:50.100Z,8.07
2022-11-27T15:31:34.895Z,4.50
2022-11-27T15:34:21.651Z,6.45
2022-11-27T15:36:55.975Z,6.22
2022-11-27T15:39:35.877Z,7.07
2022-11-27T15:42:04.807Z,8.77
2022-11-27T15:44:33.052Z,8.18
2022-11-27T15:47:02.379Z,6.30
2022-11-27T15:49:29.825Z,4.90
2022-11-27T15:51:57.828Z,5.70
2022-11-27T15:54:25.567Z,6.65
2022-11-27T15:56:53.037Z,7.88
2022-11-27T15:59:20.894Z,5.15
2022-11-27T16:01:49.696Z,5.40
2022-11-27T16:04:17.354Z,9.63
2022-11-27T16:06:45.300Z,10.98
2022-11-27T16:09:12.736Z,5.10
2022-11-27T16:11:39.763Z,5.47
2022-11-27T16:14:07.485Z,3.72
2022-11-27T16:16:35.529Z,6.47
2022-11-27T16:19:07.118Z,10.70
2022-11-27T16:21:35.716Z,13.77
2022-11-27T16:24:06.177Z,9.15
2022-11-27T16:26:33.944Z,5.53
2022-11-27T16:29:01.493Z,6.63
2022-11-27T16:31:28.699Z,5.43
2022-11-27T16:33:55.956Z,8.43
2022-11-27T16:36:25.345Z,11.88
2022-11-27T16:38:54.618Z,7.90
2022-11-27T16:41:24.551Z,9.77
2022-11-27T16:43:56.073Z,6.80
2022-11-27T16:46:27.608Z,11.63
2022-11-27T16:51:23.528Z,7.70
2022-11-27T16:53:52.740Z,10.00
2022-11-27T16:56:24.031Z,12.75
2022-11-27T16:58:56.718Z,8.07
2022-11-27T17:01:30.049Z,11.20
2022-11-27T17:03:57.247Z,10.57
2022-11-27T17:06:30.382Z,8.38
2022-11-27T17:08:59.554Z,12.57
2022-11-27T17:11:29.358Z,10.07
2022-11-27T17:13:58.198Z,9.73
2022-11-27T17:16:25.801Z,10.40
2022-11-27T17:18:54.043Z,7.00
2022-11-27T17:21:25.014Z,9.73
2022-11-27T17:23:59.007Z,10.07
2022-11-27T17:26:28.077Z,9.57
2022-11-27T17:28:56.360Z,10.65
2022-11-27T17:31:26.744Z,11.00
2022-11-27T17:36:21.966Z,16.02
2022-11-27T17:38:49.103Z,12.70
2022-11-27T17:41:16.098Z,19.60
2022-11-27T17:43:43.035Z,13.80
2022-11-27T17:46:30.729Z,9.40
2022-11-27T17:49:00.055Z,7.88
2022-11-27T17:51:30.286Z,10.38
2022-11-27T17:54:01.135Z,11.50
2022-11-27T17:56:32.302Z,14.50
2022-11-27T17:59:00.497Z,8.93
2022-11-27T18:01:29.497Z,10.30
2022-11-27T18:04:03.592Z,10.43
2022-11-27T18:06:31.734Z,8.25
2022-11-27T18:08:59.721Z,7.28
2022-11-27T18:11:29.905Z,8.85
2022-11-27T18:13:59.300Z,8.50
2022-11-27T18:16:29.796Z,6.30
2022-11-27T18:21:27.112Z,13.65
2022-11-27T18:24:22.006Z,7.97
2022-11-27T18:27:07.128Z,14.30
2022-11-27T18:29:29.338Z,13.65
2022-11-27T18:31:56.634Z,6.97
2022-11-27T18:34:23.516Z,9.80
2022-11-27T18:36:50.823Z,6.65
2022-11-27T18:39:18.237Z,5.53
2022-11-27T18:41:45.399Z,5.22
2022-11-27T18:44:12.667Z,8.18
2022-11-27T18:46:39.653Z,7.43
2022-11-27T18:49:07.220Z,8.18
2022-11-27T18:51:34.900Z,6.85
2022-11-27T18:54:02.154Z,6.75
2022-11-27T18:56:31.077Z,7.82
2022-11-27T18:59:04.037Z,7.72
2022-11-27T19:01:40.931Z,7.10
2022-11-27T19:04:10.063Z,7.07
2022-11-27T19:06:38.526Z,9.48
2022-11-27T19:09:06.225Z,6.68
2022-11-27T19:11:34.908Z,5.65
2022-11-27T19:14:03.362Z,7.68
2022-11-27T19:16:36.605Z,7.32
2022-11-27T19:19:05.248Z,6.40
2022-11-27T19:21:35.091Z,7.10
2022-11-27T19:24:04.946Z,7.18
2022-11-27T19:26:36.594Z,7.57
2022-11-27T19:29:09.568Z,6.97
2022-11-27T19:31:39.542Z,5.05
2022-11-27T19:34:07.596Z,10.98
2022-11-27T19:36:36.053Z,8.25
2022-11-27T19:39:14.134Z,8.80
2022-11-27T19:41:43.277Z,7.43
2022-11-27T19:44:11.904Z,9.68
2022-11-27T19:46:39.648Z,8.82
2022-11-27T19:49:12.207Z,8.98
2022-11-27T19:51:40.880Z,8.02
2022-11-27T19:54:10.693Z,5.60
2022-11-27T19:56:40.390Z,8.77
2022-11-27T19:59:08.453Z,6.65
2022-11-27T20:01:35.995Z,8.65
2022-11-27T20:04:04.168Z,7.63
2022-11-27T20:06:31.973Z,12.10
2022-11-27T20:09:01.287Z,8.70
2022-11-27T20:11:34.599Z,8.77
2022-11-27T20:14:05.204Z,9.57
2022-11-27T20:16:34.339Z,7.45
2022-11-27T20:19:05.462Z,8.30
2022-11-27T20:21:34.395Z,8.18
2022-11-27T20:24:03.493Z,6.90
2022-11-27T20:26:30.742Z,7.68
2022-11-27T20:28:59.857Z,7.20
2022-11-27T20:31:30.177Z,8.38
2022-11-27T20:34:00.928Z,9.25
2022-11-27T20:36:33.615Z,8.57
2022-11-27T20:39:01.166Z,9.57
2022-11-27T20:41:30.621Z,8.25
2022-11-27T20:44:00.547Z,8.80
2022-11-27T20:46:29.381Z,7.25
2022-11-27T20:48:56.900Z,11.55
2022-11-27T20:51:28.522Z,7.82
2022-11-27T20:53:57.727Z,7.25
2022-11-27T20:56:25.056Z,9.57
2022-11-27T20:58:52.419Z,8.57
2022-11-27T21:01:22.502Z,6.93
2022-11-27T21:03:51.282Z,9.10
2022-11-27T21:06:21.285Z,7.53
2022-11-27T21:08:49.838Z,8.63
2022-11-27T21:11:27.419Z,8.82
2022-11-27T21:13:56.484Z,8.13
2022-11-27T21:16:25.323Z,6.93
2022-11-27T21:18:57.107Z,7.97
2022-11-27T21:21:24.608Z,8.00
2022-11-27T21:23:51.777Z,7.93
2022-11-27T21:26:18.805Z,7.28
2022-11-27T21:28:46.494Z,8.77
2022-11-27T21:31:17.773Z,8.93
2022-11-27T21:33:59.537Z,10.30
2022-11-27T21:36:32.382Z,9.15
2022-11-27T21:39:00.833Z,10.05
2022-11-27T21:41:31.639Z,10.45
2022-11-27T21:46:28.086Z,12.18
2022-11-27T21:48:58.617Z,9.40
2022-11-27T21:51:26.630Z,9.27
2022-11-27T21:53:56.769Z,10.47
2022-11-27T21:56:26.615Z,7.68
2022-11-27T21:58:54.138Z,7.40
2022-11-27T22:01:24.025Z,8.52
2022-11-27T22:03:54.182Z,11.65
2022-11-27T22:06:23.112Z,8.80
2022-11-27T22:08:50.951Z,8.57
2022-11-27T22:11:20.959Z,7.88
2022-11-27T22:13:49.588Z,7.80
2022-11-27T22:16:22.822Z,7.45
2022-11-27T22:18:50.655Z,8.15
2022-11-27T22:21:18.084Z,7.57
2022-11-27T22:23:45.336Z,6.95
2022-11-27T22:26:14.707Z,7.68
2022-11-27T22:28:42.525Z,8.30
2022-11-27T22:31:11.456Z,8.75
2022-11-27T22:33:41.339Z,8.80
2022-11-27T22:36:17.911Z,8.93
2022-11-27T22:38:49.677Z,7.70
2022-11-27T22:41:19.278Z,9.30
2022-11-27T22:43:46.864Z,10.32
2022-11-27T22:46:18.292Z,9.50
2022-11-27T22:48:45.990Z,8.93
2022-11-27T22:51:13.604Z,8.65
2022-11-27T22:53:41.158Z,6.78
2022-11-27T22:56:11.918Z,10.98
2022-11-27T22:58:41.859Z,9.80
2022-11-27T23:01:24.507Z,6.55
2022-11-27T23:03:52.121Z,7.38
2022-11-27T23:06:23.652Z,7.10
2022-11-27T23:08:51.339Z,9.35
2022-11-27T23:11:21.422Z,8.60
2022-11-27T23:13:49.998Z,9.02
2022-11-27T23:16:17.642Z,8.02
2022-11-27T23:18:45.091Z,9.13
2022-11-27T23:21:20.709Z,7.25
2022-11-27T23:23:48.026Z,7.70
2022-11-27T23:26:21.989Z,4.90
2022-11-27T23:28:51.424Z,6.90
2022-11-27T23:31:32.157Z,6.40
2022-11-27T23:34:03.716Z,19.35
2022-11-27T23:36:31.849Z,6.47
2022-11-27T23:39:04.526Z,6.20
2022-11-27T23:41:31.976Z,9.25
2022-11-27T23:43:59.468Z,7.63
2022-11-27T23:46:28.723Z,6.55
2022-11-27T23:48:57.228Z,6.50
2022-11-27T23:51:26.559Z,8.60
2022-11-27T23:53:54.038Z,8.52
2022-11-27T23:56:23.578Z,6.57
2022-11-27T23:58:50.881Z,6.45
